KHOP/HOP METAR and TAF weather

Enter ICAO airport designator
Station Type Date Time Source
KHOP METAR 2019/08/24 09:56 UTC NOAA

KHOP 240956Z AUTO 04007KT 10SM FEW020 OVC130 19/17 A3008 RMK AO2 SLP184 T01920170


Station Type Date Time Source
KHOP Decoded METAR 2019/08/24 09:56 UTC NOAA

Station name not available
Aug 24, 2019 - 05:56 AM EDT / 2019.08.24 0956 UTC
Wind: from the NE (040 degrees) at 8 MPH (7 KT):0
Visibility: 10 mile(s):0
Sky conditions: overcast
Temperature: 66.6 F (19.2 C)
Dew Point: 62.6 F (17.0 C)
Relative Humidity: 87%
Pressure (altimeter): 30.08 in. Hg (1018 hPa)
ob: KHOP 240956Z AUTO 04007KT 10SM FEW020 OVC130 19/17 A3008 RMK AO2 SLP184 T01920170
cycle: 10

Station Type Date Time Source
KHOP TAF 2019/08/24 08:03 UTC NOAA

TAF TAF KHOP 240800Z 2408/2514 04006KT 9999 BKN020 QNH3007INS
BECMG 2414/2415 06010G15KT 9999 SCT030 BKN120 QNH3008INS
BECMG 2417/2418 06012KT 9999 SCT090 BKN120 QNH3005INS
BECMG 2422/2423 06006KT 9999 FEW030 SCT090 BKN120 QNH3005INS
BECMG 2505/2506 06006KT 9999 BKN030 QNH3003INS
BECMG 2511/2512 09006KT 9999 BKN018 OVC050 QNH3002INS TX27/2421Z TN19/2412Z

Example: see airport list